sensor_id;sensor_type;location;lat;lon;timestamp;P1;durP1;ratioP1;P2;durP2;ratioP2
15240;SDS011;7723;52.170;9.978;2023-09-12T00:00:47;15.05;;;9.68;;
15240;SDS011;7723;52.170;9.978;2023-09-12T00:03:17;13.85;;;8.60;;
15240;SDS011;7723;52.170;9.978;2023-09-12T00:05:50;12.90;;;10.00;;
15240;SDS011;7723;52.170;9.978;2023-09-12T00:08:17;15.57;;;9.40;;
15240;SDS011;7723;52.170;9.978;2023-09-12T00:10:44;16.27;;;9.90;;
15240;SDS011;7723;52.170;9.978;2023-09-12T00:13:13;15.35;;;9.90;;
15240;SDS011;7723;52.170;9.978;2023-09-12T00:15:40;15.07;;;9.55;;
15240;SDS011;7723;52.170;9.978;2023-09-12T00:18:07;15.68;;;9.15;;
15240;SDS011;7723;52.170;9.978;2023-09-12T00:20:34;23.40;;;10.00;;
15240;SDS011;7723;52.170;9.978;2023-09-12T00:23:01;15.50;;;9.65;;
15240;SDS011;7723;52.170;9.978;2023-09-12T00:25:30;14.55;;;9.40;;
15240;SDS011;7723;52.170;9.978;2023-09-12T00:27:57;13.45;;;9.88;;
15240;SDS011;7723;52.170;9.978;2023-09-12T00:30:25;19.60;;;9.40;;
15240;SDS011;7723;52.170;9.978;2023-09-12T00:32:52;13.75;;;9.50;;
15240;SDS011;7723;52.170;9.978;2023-09-12T00:35:20;15.48;;;11.10;;
15240;SDS011;7723;52.170;9.978;2023-09-12T00:37:47;15.13;;;10.95;;
15240;SDS011;7723;52.170;9.978;2023-09-12T00:40:14;21.25;;;10.65;;
15240;SDS011;7723;52.170;9.978;2023-09-12T00:42:41;14.63;;;10.98;;
15240;SDS011;7723;52.170;9.978;2023-09-12T00:45:08;16.23;;;10.63;;
15240;SDS011;7723;52.170;9.978;2023-09-12T00:47:37;14.00;;;10.88;;
15240;SDS011;7723;52.170;9.978;2023-09-12T00:50:05;17.98;;;9.93;;
15240;SDS011;7723;52.170;9.978;2023-09-12T00:52:33;17.92;;;11.52;;
15240;SDS011;7723;52.170;9.978;2023-09-12T00:55:02;16.30;;;11.00;;
15240;SDS011;7723;52.170;9.978;2023-09-12T00:57:30;18.48;;;11.15;;
15240;SDS011;7723;52.170;9.978;2023-09-12T00:59:59;17.13;;;12.00;;
15240;SDS011;7723;52.170;9.978;2023-09-12T01:02:37;16.45;;;10.85;;
15240;SDS011;7723;52.170;9.978;2023-09-12T01:05:05;20.48;;;10.55;;
15240;SDS011;7723;52.170;9.978;2023-09-12T01:07:33;15.43;;;11.02;;
15240;SDS011;7723;52.170;9.978;2023-09-12T01:10:01;17.10;;;12.38;;
15240;SDS011;7723;52.170;9.978;2023-09-12T01:12:29;14.70;;;10.88;;
15240;SDS011;7723;52.170;9.978;2023-09-12T01:14:56;18.02;;;11.65;;
15240;SDS011;7723;52.170;9.978;2023-09-12T01:17:23;14.50;;;12.50;;
15240;SDS011;7723;52.170;9.978;2023-09-12T01:19:52;24.00;;;12.02;;
15240;SDS011;7723;52.170;9.978;2023-09-12T01:22:22;17.50;;;12.75;;
15240;SDS011;7723;52.170;9.978;2023-09-12T01:25:16;18.70;;;12.18;;
15240;SDS011;7723;52.170;9.978;2023-09-12T01:28:13;15.23;;;11.63;;
15240;SDS011;7723;52.170;9.978;2023-09-12T01:30:42;20.30;;;13.63;;
15240;SDS011;7723;52.170;9.978;2023-09-12T01:33:14;12.10;;;10.80;;
15240;SDS011;7723;52.170;9.978;2023-09-12T01:35:41;17.80;;;12.00;;
15240;SDS011;7723;52.170;9.978;2023-09-12T01:38:08;15.23;;;12.20;;
15240;SDS011;7723;52.170;9.978;2023-09-12T01:40:38;17.33;;;11.80;;
15240;SDS011;7723;52.170;9.978;2023-09-12T01:43:09;17.77;;;12.70;;
15240;SDS011;7723;52.170;9.978;2023-09-12T01:45:39;17.35;;;12.23;;
15240;SDS011;7723;52.170;9.978;2023-09-12T01:48:07;15.52;;;11.68;;
15240;SDS011;7723;52.170;9.978;2023-09-12T01:50:34;18.15;;;13.63;;
15240;SDS011;7723;52.170;9.978;2023-09-12T01:53:03;16.08;;;12.68;;
15240;SDS011;7723;52.170;9.978;2023-09-12T01:55:30;17.08;;;11.85;;
15240;SDS011;7723;52.170;9.978;2023-09-12T01:57:58;14.65;;;11.00;;
15240;SDS011;7723;52.170;9.978;2023-09-12T02:00:25;15.45;;;11.65;;
15240;SDS011;7723;52.170;9.978;2023-09-12T02:02:53;17.60;;;12.23;;
15240;SDS011;7723;52.170;9.978;2023-09-12T02:05:21;15.02;;;12.13;;
15240;SDS011;7723;52.170;9.978;2023-09-12T02:07:49;14.55;;;12.43;;
15240;SDS011;7723;52.170;9.978;2023-09-12T02:10:16;17.13;;;12.85;;
15240;SDS011;7723;52.170;9.978;2023-09-12T02:12:43;16.42;;;12.32;;
15240;SDS011;7723;52.170;9.978;2023-09-12T02:15:10;18.13;;;13.20;;
15240;SDS011;7723;52.170;9.978;2023-09-12T02:17:37;16.55;;;12.88;;
15240;SDS011;7723;52.170;9.978;2023-09-12T02:20:07;22.65;;;14.50;;
15240;SDS011;7723;52.170;9.978;2023-09-12T02:22:36;19.75;;;14.15;;
15240;SDS011;7723;52.170;9.978;2023-09-12T02:25:04;18.08;;;13.38;;
15240;SDS011;7723;52.170;9.978;2023-09-12T02:27:33;17.42;;;13.65;;
15240;SDS011;7723;52.170;9.978;2023-09-12T02:30:00;17.15;;;12.65;;
15240;SDS011;7723;52.170;9.978;2023-09-12T02:32:28;18.63;;;13.35;;
15240;SDS011;7723;52.170;9.978;2023-09-12T02:34:55;21.15;;;14.68;;
15240;SDS011;7723;52.170;9.978;2023-09-12T02:37:24;20.13;;;14.43;;
15240;SDS011;7723;52.170;9.978;2023-09-12T02:39:51;22.60;;;15.63;;
15240;SDS011;7723;52.170;9.978;2023-09-12T02:42:18;20.90;;;14.73;;
15240;SDS011;7723;52.170;9.978;2023-09-12T02:44:45;21.23;;;15.50;;
15240;SDS011;7723;52.170;9.978;2023-09-12T02:47:12;20.40;;;14.95;;
15240;SDS011;7723;52.170;9.978;2023-09-12T02:49:40;19.85;;;15.15;;
15240;SDS011;7723;52.170;9.978;2023-09-12T02:52:07;22.55;;;15.60;;
15240;SDS011;7723;52.170;9.978;2023-09-12T02:54:35;19.88;;;15.25;;
15240;SDS011;7723;52.170;9.978;2023-09-12T02:57:03;20.58;;;16.00;;
15240;SDS011;7723;52.170;9.978;2023-09-12T02:59:30;18.63;;;14.85;;
15240;SDS011;7723;52.170;9.978;2023-09-12T03:01:57;17.23;;;14.57;;
15240;SDS011;7723;52.170;9.978;2023-09-12T03:04:24;20.08;;;14.45;;
15240;SDS011;7723;52.170;9.978;2023-09-12T03:06:52;23.17;;;17.67;;
15240;SDS011;7723;52.170;9.978;2023-09-12T03:09:19;23.00;;;17.65;;
15240;SDS011;7723;52.170;9.978;2023-09-12T03:11:49;23.60;;;17.95;;
15240;SDS011;7723;52.170;9.978;2023-09-12T03:14:16;26.65;;;19.50;;
15240;SDS011;7723;52.170;9.978;2023-09-12T03:16:43;24.45;;;18.38;;
15240;SDS011;7723;52.170;9.978;2023-09-12T03:19:10;30.05;;;18.60;;
15240;SDS011;7723;52.170;9.978;2023-09-12T03:21:37;27.05;;;17.90;;
15240;SDS011;7723;52.170;9.978;2023-09-12T03:24:05;24.75;;;16.85;;
15240;SDS011;7723;52.170;9.978;2023-09-12T03:26:33;24.67;;;17.23;;
15240;SDS011;7723;52.170;9.978;2023-09-12T03:29:03;24.77;;;16.70;;
15240;SDS011;7723;52.170;9.978;2023-09-12T03:31:30;24.48;;;17.45;;
15240;SDS011;7723;52.170;9.978;2023-09-12T03:33:58;24.35;;;17.00;;
15240;SDS011;7723;52.170;9.978;2023-09-12T03:36:25;21.17;;;16.38;;
15240;SDS011;7723;52.170;9.978;2023-09-12T03:38:52;23.05;;;18.27;;
15240;SDS011;7723;52.170;9.978;2023-09-12T03:41:19;28.23;;;18.63;;
15240;SDS011;7723;52.170;9.978;2023-09-12T03:43:50;22.10;;;17.35;;
15240;SDS011;7723;52.170;9.978;2023-09-12T03:46:20;22.85;;;16.88;;
15240;SDS011;7723;52.170;9.978;2023-09-12T03:48:47;25.48;;;18.58;;
15240;SDS011;7723;52.170;9.978;2023-09-12T03:51:15;24.52;;;16.38;;
15240;SDS011;7723;52.170;9.978;2023-09-12T03:53:42;25.85;;;18.80;;
15240;SDS011;7723;52.170;9.978;2023-09-12T03:56:10;24.17;;;19.38;;
15240;SDS011;7723;52.170;9.978;2023-09-12T03:58:37;25.65;;;19.58;;
15240;SDS011;7723;52.170;9.978;2023-09-12T04:01:05;24.63;;;19.98;;
15240;SDS011;7723;52.170;9.978;2023-09-12T04:03:33;25.52;;;19.38;;
15240;SDS011;7723;52.170;9.978;2023-09-12T04:06:00;24.73;;;19.23;;
15240;SDS011;7723;52.170;9.978;2023-09-12T04:08:27;25.50;;;18.95;;
15240;SDS011;7723;52.170;9.978;2023-09-12T04:10:54;27.17;;;20.05;;
15240;SDS011;7723;52.170;9.978;2023-09-12T04:13:21;24.23;;;18.65;;
15240;SDS011;7723;52.170;9.978;2023-09-12T04:15:48;25.85;;;18.10;;
15240;SDS011;7723;52.170;9.978;2023-09-12T04:18:15;25.02;;;18.75;;
15240;SDS011;7723;52.170;9.978;2023-09-12T04:20:44;30.38;;;18.15;;
15240;SDS011;7723;52.170;9.978;2023-09-12T04:23:11;21.20;;;17.27;;
15240;SDS011;7723;52.170;9.978;2023-09-12T04:25:41;25.83;;;18.23;;
15240;SDS011;7723;52.170;9.978;2023-09-12T04:28:08;26.63;;;18.63;;
15240;SDS011;7723;52.170;9.978;2023-09-12T04:30:35;26.23;;;19.08;;
15240;SDS011;7723;52.170;9.978;2023-09-12T04:33:03;25.70;;;18.02;;
15240;SDS011;7723;52.170;9.978;2023-09-12T04:35:32;22.48;;;18.17;;
15240;SDS011;7723;52.170;9.978;2023-09-12T04:38:01;23.55;;;18.05;;
15240;SDS011;7723;52.170;9.978;2023-09-12T04:40:28;23.90;;;19.17;;
15240;SDS011;7723;52.170;9.978;2023-09-12T04:42:55;18.05;;;14.63;;
15240;SDS011;7723;52.170;9.978;2023-09-12T04:45:22;22.67;;;16.45;;
15240;SDS011;7723;52.170;9.978;2023-09-12T04:47:49;23.20;;;17.38;;
15240;SDS011;7723;52.170;9.978;2023-09-12T04:50:16;19.75;;;15.68;;
15240;SDS011;7723;52.170;9.978;2023-09-12T04:52:43;22.70;;;18.05;;
15240;SDS011;7723;52.170;9.978;2023-09-12T04:55:12;22.30;;;16.05;;
15240;SDS011;7723;52.170;9.978;2023-09-12T04:57:43;25.67;;;17.63;;
15240;SDS011;7723;52.170;9.978;2023-09-12T05:00:11;22.35;;;16.80;;
15240;SDS011;7723;52.170;9.978;2023-09-12T05:02:39;24.60;;;18.38;;
15240;SDS011;7723;52.170;9.978;2023-09-12T05:05:06;37.40;;;20.15;;
15240;SDS011;7723;52.170;9.978;2023-09-12T05:07:34;45.70;;;19.70;;
15240;SDS011;7723;52.170;9.978;2023-09-12T05:10:01;26.13;;;17.42;;
15240;SDS011;7723;52.170;9.978;2023-09-12T05:12:30;42.08;;;19.60;;
15240;SDS011;7723;52.170;9.978;2023-09-12T05:14:57;29.77;;;18.13;;
15240;SDS011;7723;52.170;9.978;2023-09-12T05:17:24;32.97;;;17.77;;
15240;SDS011;7723;52.170;9.978;2023-09-12T05:19:51;30.52;;;18.17;;
15240;SDS011;7723;52.170;9.978;2023-09-12T05:22:19;28.35;;;17.83;;
15240;SDS011;7723;52.170;9.978;2023-09-12T05:24:46;22.83;;;15.13;;
15240;SDS011;7723;52.170;9.978;2023-09-12T05:27:14;28.40;;;18.73;;
15240;SDS011;7723;52.170;9.978;2023-09-12T05:29:43;25.83;;;17.65;;
15240;SDS011;7723;52.170;9.978;2023-09-12T05:32:10;20.75;;;16.02;;
15240;SDS011;7723;52.170;9.978;2023-09-12T05:34:37;32.28;;;22.50;;
15240;SDS011;7723;52.170;9.978;2023-09-12T05:37:04;23.80;;;16.83;;
15240;SDS011;7723;52.170;9.978;2023-09-12T05:39:31;26.45;;;17.80;;
15240;SDS011;7723;52.170;9.978;2023-09-12T05:41:58;22.13;;;17.17;;
15240;SDS011;7723;52.170;9.978;2023-09-12T05:44:26;26.52;;;17.33;;
15240;SDS011;7723;52.170;9.978;2023-09-12T05:46:54;22.92;;;15.70;;
15240;SDS011;7723;52.170;9.978;2023-09-12T05:49:21;23.63;;;17.65;;
15240;SDS011;7723;52.170;9.978;2023-09-12T05:51:48;24.75;;;17.10;;
15240;SDS011;7723;52.170;9.978;2023-09-12T05:54:16;23.58;;;17.02;;
15240;SDS011;7723;52.170;9.978;2023-09-12T05:56:44;22.42;;;16.75;;
15240;SDS011;7723;52.170;9.978;2023-09-12T05:59:13;24.52;;;17.35;;
15240;SDS011;7723;52.170;9.978;2023-09-12T06:01:40;24.67;;;16.90;;
15240;SDS011;7723;52.170;9.978;2023-09-12T06:04:08;22.48;;;16.67;;
15240;SDS011;7723;52.170;9.978;2023-09-12T06:06:36;22.70;;;16.13;;
15240;SDS011;7723;52.170;9.978;2023-09-12T06:09:04;22.10;;;16.10;;
15240;SDS011;7723;52.170;9.978;2023-09-12T06:11:31;21.35;;;16.85;;
15240;SDS011;7723;52.170;9.978;2023-09-12T06:13:58;22.95;;;17.30;;
15240;SDS011;7723;52.170;9.978;2023-09-12T06:16:25;22.63;;;15.77;;
15240;SDS011;7723;52.170;9.978;2023-09-12T06:18:53;27.67;;;17.45;;
15240;SDS011;7723;52.170;9.978;2023-09-12T06:21:21;22.70;;;15.65;;
15240;SDS011;7723;52.170;9.978;2023-09-12T06:23:57;22.60;;;17.67;;
15240;SDS011;7723;52.170;9.978;2023-09-12T06:26:35;26.60;;;17.98;;
15240;SDS011;7723;52.170;9.978;2023-09-12T06:29:02;24.65;;;17.58;;
15240;SDS011;7723;52.170;9.978;2023-09-12T06:31:29;24.45;;;15.73;;
15240;SDS011;7723;52.170;9.978;2023-09-12T06:33:57;26.17;;;18.38;;
15240;SDS011;7723;52.170;9.978;2023-09-12T06:36:26;23.65;;;18.90;;
15240;SDS011;7723;52.170;9.978;2023-09-12T06:38:54;35.35;;;20.65;;
15240;SDS011;7723;52.170;9.978;2023-09-12T06:41:22;29.38;;;18.58;;
15240;SDS011;7723;52.170;9.978;2023-09-12T06:43:49;31.73;;;20.38;;
15240;SDS011;7723;52.170;9.978;2023-09-12T06:46:16;27.23;;;19.75;;
15240;SDS011;7723;52.170;9.978;2023-09-12T06:48:43;32.38;;;22.13;;
15240;SDS011;7723;52.170;9.978;2023-09-12T06:51:11;34.22;;;22.10;;
15240;SDS011;7723;52.170;9.978;2023-09-12T06:53:40;39.92;;;23.70;;
15240;SDS011;7723;52.170;9.978;2023-09-12T06:56:07;36.72;;;25.13;;
15240;SDS011;7723;52.170;9.978;2023-09-12T06:58:35;34.97;;;24.45;;
15240;SDS011;7723;52.170;9.978;2023-09-12T07:01:02;39.47;;;25.48;;
15240;SDS011;7723;52.170;9.978;2023-09-12T07:03:30;44.20;;;26.38;;
15240;SDS011;7723;52.170;9.978;2023-09-12T07:05:58;35.50;;;26.10;;
15240;SDS011;7723;52.170;9.978;2023-09-12T07:08:26;44.55;;;27.98;;
15240;SDS011;7723;52.170;9.978;2023-09-12T07:10:56;37.33;;;26.17;;
15240;SDS011;7723;52.170;9.978;2023-09-12T07:13:24;37.95;;;25.30;;
15240;SDS011;7723;52.170;9.978;2023-09-12T07:15:51;35.17;;;25.77;;
15240;SDS011;7723;52.170;9.978;2023-09-12T07:18:19;38.22;;;26.98;;
15240;SDS011;7723;52.170;9.978;2023-09-12T07:20:46;36.70;;;27.52;;
15240;SDS011;7723;52.170;9.978;2023-09-12T07:23:13;39.75;;;28.45;;
15240;SDS011;7723;52.170;9.978;2023-09-12T07:25:40;40.08;;;28.40;;
15240;SDS011;7723;52.170;9.978;2023-09-12T07:28:09;43.60;;;28.20;;
15240;SDS011;7723;52.170;9.978;2023-09-12T07:30:36;41.40;;;28.58;;
15240;SDS011;7723;52.170;9.978;2023-09-12T07:33:04;37.65;;;26.63;;
15240;SDS011;7723;52.170;9.978;2023-09-12T07:35:31;39.47;;;26.67;;
15240;SDS011;7723;52.170;9.978;2023-09-12T07:37:59;32.72;;;23.92;;
15240;SDS011;7723;52.170;9.978;2023-09-12T07:40:26;28.65;;;21.15;;
15240;SDS011;7723;52.170;9.978;2023-09-12T07:42:54;26.73;;;19.23;;
15240;SDS011;7723;52.170;9.978;2023-09-12T07:45:22;28.25;;;17.77;;
15240;SDS011;7723;52.170;9.978;2023-09-12T07:47:49;28.15;;;16.42;;
15240;SDS011;7723;52.170;9.978;2023-09-12T07:50:16;19.55;;;12.65;;
15240;SDS011;7723;52.170;9.978;2023-09-12T07:52:43;18.63;;;12.63;;
15240;SDS011;7723;52.170;9.978;2023-09-12T07:55:11;16.38;;;11.98;;
15240;SDS011;7723;52.170;9.978;2023-09-12T07:57:38;13.05;;;10.65;;
15240;SDS011;7723;52.170;9.978;2023-09-12T08:00:05;16.88;;;10.65;;
15240;SDS011;7723;52.170;9.978;2023-09-12T08:02:37;16.92;;;10.60;;
15240;SDS011;7723;52.170;9.978;2023-09-12T08:05:04;17.27;;;10.55;;
15240;SDS011;7723;52.170;9.978;2023-09-12T08:07:33;16.38;;;10.13;;
15240;SDS011;7723;52.170;9.978;2023-09-12T08:10:00;14.77;;;10.88;;
15240;SDS011;7723;52.170;9.978;2023-09-12T08:12:27;15.10;;;10.32;;
15240;SDS011;7723;52.170;9.978;2023-09-12T08:14:55;12.50;;;10.02;;
15240;SDS011;7723;52.170;9.978;2023-09-12T08:17:22;15.63;;;9.88;;
15240;SDS011;7723;52.170;9.978;2023-09-12T08:19:51;12.43;;;8.88;;
15240;SDS011;7723;52.170;9.978;2023-09-12T08:22:18;9.80;;;6.75;;
15240;SDS011;7723;52.170;9.978;2023-09-12T08:24:45;8.82;;;7.50;;
15240;SDS011;7723;52.170;9.978;2023-09-12T08:27:12;7.82;;;6.68;;
15240;SDS011;7723;52.170;9.978;2023-09-12T08:29:39;8.70;;;5.63;;
15240;SDS011;7723;52.170;9.978;2023-09-12T08:32:07;8.32;;;6.18;;
15240;SDS011;7723;52.170;9.978;2023-09-12T08:34:34;7.03;;;5.13;;
15240;SDS011;7723;52.170;9.978;2023-09-12T08:37:02;7.50;;;5.03;;
15240;SDS011;7723;52.170;9.978;2023-09-12T08:39:40;8.98;;;5.00;;
15240;SDS011;7723;52.170;9.978;2023-09-12T08:42:08;8.07;;;5.38;;
15240;SDS011;7723;52.170;9.978;2023-09-12T08:44:39;9.05;;;5.97;;
15240;SDS011;7723;52.170;9.978;2023-09-12T08:47:07;8.57;;;6.15;;
15240;SDS011;7723;52.170;9.978;2023-09-12T08:49:36;11.70;;;7.82;;
15240;SDS011;7723;52.170;9.978;2023-09-12T08:52:05;8.90;;;7.65;;
15240;SDS011;7723;52.170;9.978;2023-09-12T08:54:32;12.68;;;7.72;;
15240;SDS011;7723;52.170;9.978;2023-09-12T08:57:00;8.82;;;7.45;;
15240;SDS011;7723;52.170;9.978;2023-09-12T08:59:28;10.32;;;7.90;;
15240;SDS011;7723;52.170;9.978;2023-09-12T09:01:57;11.10;;;8.27;;
15240;SDS011;7723;52.170;9.978;2023-09-12T09:04:26;16.08;;;10.13;;
15240;SDS011;7723;52.170;9.978;2023-09-12T09:06:56;15.80;;;10.85;;
15240;SDS011;7723;52.170;9.978;2023-09-12T09:09:26;12.52;;;9.90;;
15240;SDS011;7723;52.170;9.978;2023-09-12T09:11:54;12.52;;;11.05;;
15240;SDS011;7723;52.170;9.978;2023-09-12T09:14:21;16.45;;;11.85;;
15240;SDS011;7723;52.170;9.978;2023-09-12T09:16:48;20.92;;;13.13;;
15240;SDS011;7723;52.170;9.978;2023-09-12T09:19:16;16.40;;;13.05;;
15240;SDS011;7723;52.170;9.978;2023-09-12T09:21:45;16.55;;;13.48;;
15240;SDS011;7723;52.170;9.978;2023-09-12T09:24:12;16.63;;;13.63;;
15240;SDS011;7723;52.170;9.978;2023-09-12T09:26:44;18.27;;;13.23;;
15240;SDS011;7723;52.170;9.978;2023-09-12T09:29:13;17.58;;;12.70;;
15240;SDS011;7723;52.170;9.978;2023-09-12T09:31:42;14.25;;;11.60;;
15240;SDS011;7723;52.170;9.978;2023-09-12T09:34:10;13.18;;;11.65;;
15240;SDS011;7723;52.170;9.978;2023-09-12T09:36:40;10.77;;;8.48;;
15240;SDS011;7723;52.170;9.978;2023-09-12T09:39:09;15.07;;;7.35;;
15240;SDS011;7723;52.170;9.978;2023-09-12T09:41:37;8.55;;;7.60;;
15240;SDS011;7723;52.170;9.978;2023-09-12T09:44:06;8.73;;;7.25;;
15240;SDS011;7723;52.170;9.978;2023-09-12T09:46:34;8.98;;;7.45;;
15240;SDS011;7723;52.170;9.978;2023-09-12T09:49:03;8.75;;;7.90;;
15240;SDS011;7723;52.170;9.978;2023-09-12T09:51:31;10.70;;;6.38;;
15240;SDS011;7723;52.170;9.978;2023-09-12T09:53:59;7.03;;;6.32;;
15240;SDS011;7723;52.170;9.978;2023-09-12T09:56:26;7.03;;;5.80;;
15240;SDS011;7723;52.170;9.978;2023-09-12T09:58:55;8.02;;;6.70;;
15240;SDS011;7723;52.170;9.978;2023-09-12T10:01:28;8.82;;;6.20;;
15240;SDS011;7723;52.170;9.978;2023-09-12T10:03:57;7.55;;;5.43;;
15240;SDS011;7723;52.170;9.978;2023-09-12T10:06:26;4.40;;;4.00;;
15240;SDS011;7723;52.170;9.978;2023-09-12T10:08:54;4.60;;;4.15;;
15240;SDS011;7723;52.170;9.978;2023-09-12T10:11:22;5.07;;;4.15;;
15240;SDS011;7723;52.170;9.978;2023-09-12T10:13:52;4.88;;;3.53;;
15240;SDS011;7723;52.170;9.978;2023-09-12T10:16:22;3.75;;;3.45;;
15240;SDS011;7723;52.170;9.978;2023-09-12T10:18:57;4.53;;;4.13;;
15240;SDS011;7723;52.170;9.978;2023-09-12T10:21:28;4.60;;;4.18;;
15240;SDS011;7723;52.170;9.978;2023-09-12T10:23:58;4.75;;;3.92;;
15240;SDS011;7723;52.170;9.978;2023-09-12T10:26:26;4.53;;;3.78;;
15240;SDS011;7723;52.170;9.978;2023-09-12T10:28:54;4.72;;;3.45;;
15240;SDS011;7723;52.170;9.978;2023-09-12T10:31:21;5.25;;;4.28;;
15240;SDS011;7723;52.170;9.978;2023-09-12T10:33:54;5.97;;;4.40;;
15240;SDS011;7723;52.170;9.978;2023-09-12T10:36:21;5.15;;;4.50;;
15240;SDS011;7723;52.170;9.978;2023-09-12T10:38:51;4.88;;;4.10;;
15240;SDS011;7723;52.170;9.978;2023-09-12T10:41:19;4.20;;;3.75;;
15240;SDS011;7723;52.170;9.978;2023-09-12T10:43:49;5.38;;;4.38;;
15240;SDS011;7723;52.170;9.978;2023-09-12T10:46:19;3.92;;;3.53;;
15240;SDS011;7723;52.170;9.978;2023-09-12T10:48:47;5.18;;;3.88;;
15240;SDS011;7723;52.170;9.978;2023-09-12T10:51:16;4.30;;;3.90;;
15240;SDS011;7723;52.170;9.978;2023-09-12T10:53:45;3.72;;;3.42;;
15240;SDS011;7723;52.170;9.978;2023-09-12T10:56:15;5.60;;;4.03;;
15240;SDS011;7723;52.170;9.978;2023-09-12T11:01:37;5.78;;;4.68;;
15240;SDS011;7723;52.170;9.978;2023-09-12T11:07:01;5.70;;;4.40;;
15240;SDS011;7723;52.170;9.978;2023-09-12T11:09:50;4.70;;;4.30;;
15240;SDS011;7723;52.170;9.978;2023-09-12T11:12:45;5.13;;;4.63;;
15240;SDS011;7723;52.170;9.978;2023-09-12T11:15:13;6.40;;;4.68;;
15240;SDS011;7723;52.170;9.978;2023-09-12T11:17:42;6.82;;;4.35;;
15240;SDS011;7723;52.170;9.978;2023-09-12T11:20:09;5.20;;;4.45;;
15240;SDS011;7723;52.170;9.978;2023-09-12T11:22:40;6.18;;;4.88;;
15240;SDS011;7723;52.170;9.978;2023-09-12T11:25:18;5.25;;;4.47;;
15240;SDS011;7723;52.170;9.978;2023-09-12T11:28:01;6.50;;;5.18;;
15240;SDS011;7723;52.170;9.978;2023-09-12T11:30:30;4.57;;;4.07;;
15240;SDS011;7723;52.170;9.978;2023-09-12T11:32:58;5.03;;;4.28;;
15240;SDS011;7723;52.170;9.978;2023-09-12T11:35:26;5.40;;;4.80;;
15240;SDS011;7723;52.170;9.978;2023-09-12T11:37:56;7.32;;;4.60;;
15240;SDS011;7723;52.170;9.978;2023-09-12T11:40:26;5.97;;;4.70;;
15240;SDS011;7723;52.170;9.978;2023-09-12T11:43:19;6.38;;;4.72;;
15240;SDS011;7723;52.170;9.978;2023-09-12T11:45:48;4.78;;;4.28;;
15240;SDS011;7723;52.170;9.978;2023-09-12T11:48:16;6.05;;;4.65;;
15240;SDS011;7723;52.170;9.978;2023-09-12T11:50:48;8.85;;;5.25;;
15240;SDS011;7723;52.170;9.978;2023-09-12T11:53:19;5.88;;;4.85;;
15240;SDS011;7723;52.170;9.978;2023-09-12T11:55:51;7.57;;;4.85;;
15240;SDS011;7723;52.170;9.978;2023-09-12T11:58:21;6.13;;;4.82;;
15240;SDS011;7723;52.170;9.978;2023-09-12T12:00:50;6.45;;;5.35;;
15240;SDS011;7723;52.170;9.978;2023-09-12T12:03:18;5.47;;;4.93;;
15240;SDS011;7723;52.170;9.978;2023-09-12T12:05:46;5.35;;;4.70;;
15240;SDS011;7723;52.170;9.978;2023-09-12T12:08:14;5.25;;;4.70;;
15240;SDS011;7723;52.170;9.978;2023-09-12T12:10:44;5.75;;;4.97;;
15240;SDS011;7723;52.170;9.978;2023-09-12T12:13:16;5.45;;;4.95;;
15240;SDS011;7723;52.170;9.978;2023-09-12T12:15:44;8.07;;;5.85;;
15240;SDS011;7723;52.170;9.978;2023-09-12T12:18:11;7.13;;;5.05;;
15240;SDS011;7723;52.170;9.978;2023-09-12T12:20:38;7.30;;;5.43;;
15240;SDS011;7723;52.170;9.978;2023-09-12T12:23:05;5.35;;;4.85;;
15240;SDS011;7723;52.170;9.978;2023-09-12T12:25:33;6.40;;;4.63;;
15240;SDS011;7723;52.170;9.978;2023-09-12T12:28:03;5.05;;;4.55;;
15240;SDS011;7723;52.170;9.978;2023-09-12T12:30:30;8.00;;;4.20;;
15240;SDS011;7723;52.170;9.978;2023-09-12T12:33:00;5.65;;;4.32;;
15240;SDS011;7723;52.170;9.978;2023-09-12T12:35:28;5.05;;;4.00;;
15240;SDS011;7723;52.170;9.978;2023-09-12T12:37:55;3.97;;;3.58;;
15240;SDS011;7723;52.170;9.978;2023-09-12T12:40:22;4.93;;;4.28;;
15240;SDS011;7723;52.170;9.978;2023-09-12T12:42:50;5.35;;;4.78;;
15240;SDS011;7723;52.170;9.978;2023-09-12T12:45:19;5.72;;;4.40;;
15240;SDS011;7723;52.170;9.978;2023-09-12T12:47:50;7.50;;;5.10;;
15240;SDS011;7723;52.170;9.978;2023-09-12T12:50:18;5.00;;;4.50;;
15240;SDS011;7723;52.170;9.978;2023-09-12T12:52:47;6.32;;;4.47;;
15240;SDS011;7723;52.170;9.978;2023-09-12T12:55:15;5.28;;;4.22;;
15240;SDS011;7723;52.170;9.978;2023-09-12T12:57:44;4.28;;;3.88;;
15240;SDS011;7723;52.170;9.978;2023-09-12T13:00:14;4.32;;;3.92;;
15240;SDS011;7723;52.170;9.978;2023-09-12T13:02:45;3.75;;;3.40;;
15240;SDS011;7723;52.170;9.978;2023-09-12T13:05:23;5.20;;;3.95;;
15240;SDS011;7723;52.170;9.978;2023-09-12T13:07:52;6.47;;;5.25;;
15240;SDS011;7723;52.170;9.978;2023-09-12T13:10:19;7.25;;;4.82;;
15240;SDS011;7723;52.170;9.978;2023-09-12T13:12:47;5.57;;;4.55;;
15240;SDS011;7723;52.170;9.978;2023-09-12T13:15:14;6.13;;;4.65;;
15240;SDS011;7723;52.170;9.978;2023-09-12T13:17:43;6.18;;;4.88;;
15240;SDS011;7723;52.170;9.978;2023-09-12T13:20:11;6.22;;;5.18;;
15240;SDS011;7723;52.170;9.978;2023-09-12T13:22:39;7.55;;;5.05;;
15240;SDS011;7723;52.170;9.978;2023-09-12T13:25:08;6.05;;;4.57;;
15240;SDS011;7723;52.170;9.978;2023-09-12T13:27:36;5.15;;;4.45;;
15240;SDS011;7723;52.170;9.978;2023-09-12T13:30:03;5.30;;;4.75;;
15240;SDS011;7723;52.170;9.978;2023-09-12T13:32:31;5.47;;;4.63;;
15240;SDS011;7723;52.170;9.978;2023-09-12T13:35:00;5.18;;;4.60;;
15240;SDS011;7723;52.170;9.978;2023-09-12T13:37:28;5.82;;;4.40;;
15240;SDS011;7723;52.170;9.978;2023-09-12T13:39:55;6.05;;;4.30;;
15240;SDS011;7723;52.170;9.978;2023-09-12T13:42:23;5.40;;;4.43;;
15240;SDS011;7723;52.170;9.978;2023-09-12T13:44:55;4.55;;;3.90;;
15240;SDS011;7723;52.170;9.978;2023-09-12T13:47:23;5.10;;;4.55;;
15240;SDS011;7723;52.170;9.978;2023-09-12T13:49:51;5.07;;;3.80;;
15240;SDS011;7723;52.170;9.978;2023-09-12T13:52:20;5.00;;;4.07;;
15240;SDS011;7723;52.170;9.978;2023-09-12T13:54:47;5.82;;;4.00;;
15240;SDS011;7723;52.170;9.978;2023-09-12T13:57:15;4.30;;;3.42;;
15240;SDS011;7723;52.170;9.978;2023-09-12T13:59:43;3.60;;;3.30;;
15240;SDS011;7723;52.170;9.978;2023-09-12T14:02:10;5.63;;;3.92;;
15240;SDS011;7723;52.170;9.978;2023-09-12T14:04:37;4.13;;;3.72;;
15240;SDS011;7723;52.170;9.978;2023-09-12T14:07:05;5.00;;;4.43;;
15240;SDS011;7723;52.170;9.978;2023-09-12T14:09:33;8.25;;;3.63;;
15240;SDS011;7723;52.170;9.978;2023-09-12T14:12:00;4.35;;;3.70;;
15240;SDS011;7723;52.170;9.978;2023-09-12T14:14:28;4.38;;;3.40;;
15240;SDS011;7723;52.170;9.978;2023-09-12T14:16:55;4.57;;;4.07;;
15240;SDS011;7723;52.170;9.978;2023-09-12T14:19:24;4.30;;;3.78;;
15240;SDS011;7723;52.170;9.978;2023-09-12T14:21:51;4.53;;;3.85;;
15240;SDS011;7723;52.170;9.978;2023-09-12T14:24:18;4.45;;;3.65;;
15240;SDS011;7723;52.170;9.978;2023-09-12T14:26:47;4.03;;;3.30;;
15240;SDS011;7723;52.170;9.978;2023-09-12T14:29:14;3.97;;;3.42;;
15240;SDS011;7723;52.170;9.978;2023-09-12T14:31:43;3.75;;;3.33;;
15240;SDS011;7723;52.170;9.978;2023-09-12T14:34:15;4.15;;;3.08;;
15240;SDS011;7723;52.170;9.978;2023-09-12T14:36:42;4.50;;;3.58;;
15240;SDS011;7723;52.170;9.978;2023-09-12T14:39:11;3.50;;;3.20;;
15240;SDS011;7723;52.170;9.978;2023-09-12T14:41:42;4.55;;;3.58;;
15240;SDS011;7723;52.170;9.978;2023-09-12T14:44:16;3.92;;;3.53;;
15240;SDS011;7723;52.170;9.978;2023-09-12T14:46:43;3.80;;;3.40;;
15240;SDS011;7723;52.170;9.978;2023-09-12T14:49:10;5.60;;;3.72;;
15240;SDS011;7723;52.170;9.978;2023-09-12T14:51:37;4.45;;;3.60;;
15240;SDS011;7723;52.170;9.978;2023-09-12T14:54:05;5.63;;;3.63;;
15240;SDS011;7723;52.170;9.978;2023-09-12T14:56:33;6.03;;;4.00;;
15240;SDS011;7723;52.170;9.978;2023-09-12T14:59:01;4.75;;;3.80;;